sensor_id;sensor_type;location;lat;lon;timestamp;pressure;altitude;pressure_sealevel;temperature;humidity
48563;BME280;34981;49.104;11.396;2023-05-12T00:00:20;100112.72;;;8.87;100.00
48563;BME280;34981;49.104;11.396;2023-05-12T00:02:48;100121.47;;;8.89;100.00
48563;BME280;34981;49.104;11.396;2023-05-12T00:05:15;100119.00;;;8.95;100.00
48563;BME280;34981;49.104;11.396;2023-05-12T00:07:42;100110.03;;;8.87;100.00
48563;BME280;34981;49.104;11.396;2023-05-12T00:10:09;100107.22;;;8.88;100.00
48563;BME280;34981;49.104;11.396;2023-05-12T00:12:36;100096.97;;;8.84;100.00
48563;BME280;34981;49.104;11.396;2023-05-12T00:15:04;100095.56;;;8.80;100.00
48563;BME280;34981;49.104;11.396;2023-05-12T00:17:31;100095.09;;;8.84;100.00
48563;BME280;34981;49.104;11.396;2023-05-12T00:19:58;100094.63;;;8.89;100.00
48563;BME280;34981;49.104;11.396;2023-05-12T00:22:25;100092.09;;;8.87;100.00
48563;BME280;34981;49.104;11.396;2023-05-12T00:24:52;100093.59;;;8.82;100.00
48563;BME280;34981;49.104;11.396;2023-05-12T00:27:19;100096.63;;;8.87;100.00
48563;BME280;34981;49.104;11.396;2023-05-12T00:29:46;100084.69;;;8.81;100.00
48563;BME280;34981;49.104;11.396;2023-05-12T00:32:14;100086.75;;;8.87;100.00
48563;BME280;34981;49.104;11.396;2023-05-12T00:34:41;100080.84;;;8.84;100.00
48563;BME280;34981;49.104;11.396;2023-05-12T00:37:09;100084.19;;;8.86;100.00
48563;BME280;34981;49.104;11.396;2023-05-12T00:39:36;100086.09;;;8.93;100.00
48563;BME280;34981;49.104;11.396;2023-05-12T00:42:04;100076.31;;;8.84;100.00
48563;BME280;34981;49.104;11.396;2023-05-12T00:44:31;100078.91;;;8.94;100.00
48563;BME280;34981;49.104;11.396;2023-05-12T00:46:58;100079.69;;;8.86;100.00
48563;BME280;34981;49.104;11.396;2023-05-12T00:49:26;100083.56;;;8.92;100.00
48563;BME280;34981;49.104;11.396;2023-05-12T00:51:53;100075.00;;;8.88;100.00
48563;BME280;34981;49.104;11.396;2023-05-12T00:54:21;100076.22;;;8.94;100.00
48563;BME280;34981;49.104;11.396;2023-05-12T00:56:49;100072.47;;;8.87;100.00
48563;BME280;34981;49.104;11.396;2023-05-12T00:59:16;100071.53;;;8.96;100.00
48563;BME280;34981;49.104;11.396;2023-05-12T01:01:44;100070.63;;;8.87;100.00
48563;BME280;34981;49.104;11.396;2023-05-12T01:04:12;100070.13;;;8.84;100.00
48563;BME280;34981;49.104;11.396;2023-05-12T01:09:10;100069.50;;;8.90;100.00
48563;BME280;34981;49.104;11.396;2023-05-12T01:11:37;100076.75;;;8.97;100.00
48563;BME280;34981;49.104;11.396;2023-05-12T01:14:06;100066.97;;;8.88;100.00
48563;BME280;34981;49.104;11.396;2023-05-12T01:16:35;100067.59;;;8.82;100.00
48563;BME280;34981;49.104;11.396;2023-05-12T01:19:05;100066.63;;;8.91;100.00
48563;BME280;34981;49.104;11.396;2023-05-12T01:21:36;100059.06;;;8.87;100.00
48563;BME280;34981;49.104;11.396;2023-05-12T01:24:05;100068.16;;;8.94;100.00
48563;BME280;34981;49.104;11.396;2023-05-12T01:26:33;100070.91;;;9.02;100.00
48563;BME280;34981;49.104;11.396;2023-05-12T01:29:01;100053.53;;;8.88;100.00
48563;BME280;34981;49.104;11.396;2023-05-12T01:31:28;100060.00;;;8.78;100.00
48563;BME280;34981;49.104;11.396;2023-05-12T01:33:56;100058.56;;;8.83;100.00
48563;BME280;34981;49.104;11.396;2023-05-12T01:36:24;100058.69;;;8.82;100.00
48563;BME280;34981;49.104;11.396;2023-05-12T01:38:51;100063.72;;;8.85;100.00
48563;BME280;34981;49.104;11.396;2023-05-12T01:41:18;100059.91;;;8.87;100.00
48563;BME280;34981;49.104;11.396;2023-05-12T01:43:47;100053.34;;;8.82;100.00
48563;BME280;34981;49.104;11.396;2023-05-12T01:46:14;100054.84;;;8.84;100.00
48563;BME280;34981;49.104;11.396;2023-05-12T01:48:42;100057.53;;;8.84;100.00
48563;BME280;34981;49.104;11.396;2023-05-12T01:51:09;100052.34;;;8.83;100.00
48563;BME280;34981;49.104;11.396;2023-05-12T01:53:37;100055.63;;;8.77;100.00
48563;BME280;34981;49.104;11.396;2023-05-12T01:56:04;100052.59;;;8.72;100.00
48563;BME280;34981;49.104;11.396;2023-05-12T01:58:32;100059.06;;;8.87;100.00
48563;BME280;34981;49.104;11.396;2023-05-12T02:01:00;100063.59;;;8.86;100.00
48563;BME280;34981;49.104;11.396;2023-05-12T02:03:27;100062.09;;;8.92;100.00
48563;BME280;34981;49.104;11.396;2023-05-12T02:05:56;100051.69;;;8.89;100.00
48563;BME280;34981;49.104;11.396;2023-05-12T02:08:23;100049.88;;;8.89;100.00
48563;BME280;34981;49.104;11.396;2023-05-12T02:11:02;100048.66;;;8.84;100.00
48563;BME280;34981;49.104;11.396;2023-05-12T02:13:29;100043.81;;;8.87;100.00
48563;BME280;34981;49.104;11.396;2023-05-12T02:15:56;100054.38;;;8.89;100.00
48563;BME280;34981;49.104;11.396;2023-05-12T02:18:24;100055.88;;;8.91;100.00
48563;BME280;34981;49.104;11.396;2023-05-12T02:20:51;100037.25;;;8.82;100.00
48563;BME280;34981;49.104;11.396;2023-05-12T02:23:19;100040.63;;;8.84;100.00
48563;BME280;34981;49.104;11.396;2023-05-12T02:25:46;100042.97;;;8.87;100.00
48563;BME280;34981;49.104;11.396;2023-05-12T02:28:13;100040.63;;;8.84;100.00
48563;BME280;34981;49.104;11.396;2023-05-12T02:30:45;100038.22;;;8.81;100.00
48563;BME280;34981;49.104;11.396;2023-05-12T02:33:15;100043.28;;;8.84;100.00
48563;BME280;34981;49.104;11.396;2023-05-12T02:35:43;100040.75;;;8.82;100.00
48563;BME280;34981;49.104;11.396;2023-05-12T02:38:10;100041.91;;;8.80;100.00
48563;BME280;34981;49.104;11.396;2023-05-12T02:40:38;100046.28;;;8.81;100.00
48563;BME280;34981;49.104;11.396;2023-05-12T02:43:05;100039.06;;;8.81;100.00
48563;BME280;34981;49.104;11.396;2023-05-12T02:45:32;100035.69;;;8.79;100.00
48563;BME280;34981;49.104;11.396;2023-05-12T02:48:00;100038.53;;;8.78;100.00
48563;BME280;34981;49.104;11.396;2023-05-12T02:50:27;100041.28;;;8.86;100.00
48563;BME280;34981;49.104;11.396;2023-05-12T02:52:54;100045.50;;;8.88;100.00
48563;BME280;34981;49.104;11.396;2023-05-12T02:57:56;100035.91;;;8.86;100.00
48563;BME280;34981;49.104;11.396;2023-05-12T03:00:23;100038.44;;;8.87;100.00
48563;BME280;34981;49.104;11.396;2023-05-12T03:02:52;100039.28;;;8.88;100.00
48563;BME280;34981;49.104;11.396;2023-05-12T03:05:19;100053.06;;;8.93;100.00
48563;BME280;34981;49.104;11.396;2023-05-12T03:07:47;100041.66;;;8.91;100.00
48563;BME280;34981;49.104;11.396;2023-05-12T03:10:15;100041.59;;;8.83;100.00
48563;BME280;34981;49.104;11.396;2023-05-12T03:12:43;100041.91;;;8.80;100.00
48563;BME280;34981;49.104;11.396;2023-05-12T03:15:10;100038.22;;;8.81;100.00
48563;BME280;34981;49.104;11.396;2023-05-12T03:17:37;100035.25;;;8.84;100.00
48563;BME280;34981;49.104;11.396;2023-05-12T03:20:05;100036.03;;;8.76;100.00
48563;BME280;34981;49.104;11.396;2023-05-12T03:22:32;100044.09;;;8.84;100.00
48563;BME280;34981;49.104;11.396;2023-05-12T03:24:59;100041.81;;;8.89;100.00
48563;BME280;34981;49.104;11.396;2023-05-12T03:27:27;100032.03;;;8.80;100.00
48563;BME280;34981;49.104;11.396;2023-05-12T03:29:54;100037.38;;;8.80;100.00
48563;BME280;34981;49.104;11.396;2023-05-12T03:32:21;100038.75;;;8.84;100.00
48563;BME280;34981;49.104;11.396;2023-05-12T03:34:48;100041.59;;;8.83;100.00
48563;BME280;34981;49.104;11.396;2023-05-12T03:37:15;100031.19;;;8.80;100.00
48563;BME280;34981;49.104;11.396;2023-05-12T03:39:44;100031.81;;;8.74;100.00
48563;BME280;34981;49.104;11.396;2023-05-12T03:42:11;100038.53;;;8.78;100.00
48563;BME280;34981;49.104;11.396;2023-05-12T03:44:40;100033.16;;;8.78;100.00
48563;BME280;34981;49.104;11.396;2023-05-12T03:47:07;100033.72;;;8.81;100.00
48563;BME280;34981;49.104;11.396;2023-05-12T03:49:35;100029.69;;;8.85;100.00
48563;BME280;34981;49.104;11.396;2023-05-12T03:52:03;100030.66;;;8.76;100.00
48563;BME280;34981;49.104;11.396;2023-05-12T03:54:30;100036.03;;;8.76;100.00
48563;BME280;34981;49.104;11.396;2023-05-12T03:56:57;100023.91;;;8.72;100.00
48563;BME280;34981;49.104;11.396;2023-05-12T03:59:24;100029.81;;;8.76;100.00
48563;BME280;34981;49.104;11.396;2023-05-12T04:01:51;100028.97;;;8.75;100.00
48563;BME280;34981;49.104;11.396;2023-05-12T04:04:19;100029.81;;;8.76;100.00
48563;BME280;34981;49.104;11.396;2023-05-12T04:06:46;100031.19;;;8.80;100.00
48563;BME280;34981;49.104;11.396;2023-05-12T04:09:14;100032.38;;;8.85;100.00
48563;BME280;34981;49.104;11.396;2023-05-12T04:11:44;100031.53;;;8.85;100.00
48563;BME280;34981;49.104;11.396;2023-05-12T04:14:11;100034.56;;;8.82;100.00
48563;BME280;34981;49.104;11.396;2023-05-12T04:16:38;100034.91;;;8.87;100.00
48563;BME280;34981;49.104;11.396;2023-05-12T04:19:06;100030.88;;;8.83;100.00
48563;BME280;34981;49.104;11.396;2023-05-12T04:21:34;100030.47;;;8.78;100.00
48563;BME280;34981;49.104;11.396;2023-05-12T04:24:01;100039.38;;;8.78;100.00
48563;BME280;34981;49.104;11.396;2023-05-12T04:26:32;100039.75;;;8.83;100.00
48563;BME280;34981;49.104;11.396;2023-05-12T04:28:59;100035.34;;;8.74;100.00
48563;BME280;34981;49.104;11.396;2023-05-12T04:31:26;100041.75;;;8.81;100.00
48563;BME280;34981;49.104;11.396;2023-05-12T04:33:54;100045.50;;;8.88;100.00
48563;BME280;34981;49.104;11.396;2023-05-12T04:36:23;100050.31;;;8.85;100.00
48563;BME280;34981;49.104;11.396;2023-05-12T04:38:50;100055.38;;;8.88;100.00
48563;BME280;34981;49.104;11.396;2023-05-12T04:41:17;100057.06;;;8.89;100.00
48563;BME280;34981;49.104;11.396;2023-05-12T04:43:44;100053.69;;;8.87;100.00
48563;BME280;34981;49.104;11.396;2023-05-12T04:46:14;100048.28;;;8.79;100.00
48563;BME280;34981;49.104;11.396;2023-05-12T04:48:42;100058.56;;;8.83;100.00
48563;BME280;34981;49.104;11.396;2023-05-12T04:51:09;100060.22;;;8.84;100.00
48563;BME280;34981;49.104;11.396;2023-05-12T04:53:36;100062.53;;;8.79;100.00
48563;BME280;34981;49.104;11.396;2023-05-12T04:56:03;100052.66;;;8.80;100.00
48563;BME280;34981;49.104;11.396;2023-05-12T04:58:36;100050.94;;;8.79;100.00
48563;BME280;34981;49.104;11.396;2023-05-12T05:01:03;100062.22;;;8.82;100.00
48563;BME280;34981;49.104;11.396;2023-05-12T05:03:32;100075.00;;;8.88;100.00
48563;BME280;34981;49.104;11.396;2023-05-12T05:05:59;100065.91;;;8.81;100.00
48563;BME280;34981;49.104;11.396;2023-05-12T05:08:27;100073.47;;;8.86;100.00
48563;BME280;34981;49.104;11.396;2023-05-12T05:10:54;100065.41;;;8.86;100.00
48563;BME280;34981;49.104;11.396;2023-05-12T05:13:21;100064.44;;;8.87;100.00
48563;BME280;34981;49.104;11.396;2023-05-12T05:15:51;100067.59;;;8.82;100.00
48563;BME280;34981;49.104;11.396;2023-05-12T05:18:19;100065.06;;;8.81;100.00
48563;BME280;34981;49.104;11.396;2023-05-12T05:20:50;100070.13;;;8.84;100.00
48563;BME280;34981;49.104;11.396;2023-05-12T05:23:24;100072.63;;;8.85;100.00
48563;BME280;34981;49.104;11.396;2023-05-12T05:25:52;100070.13;;;8.84;100.00
48563;BME280;34981;49.104;11.396;2023-05-12T05:28:19;100071.47;;;8.88;100.00
48563;BME280;34981;49.104;11.396;2023-05-12T05:30:46;100080.53;;;8.87;100.00
48563;BME280;34981;49.104;11.396;2023-05-12T05:33:14;100079.69;;;8.86;100.00
48563;BME280;34981;49.104;11.396;2023-05-12T05:35:41;100073.97;;;8.81;100.00
48563;BME280;34981;49.104;11.396;2023-05-12T05:38:09;100074.09;;;8.80;100.00
48563;BME280;34981;49.104;11.396;2023-05-12T05:40:36;100077.47;;;8.82;100.00
48563;BME280;34981;49.104;11.396;2023-05-12T05:43:17;100066.13;;;8.88;100.00
48563;BME280;34981;49.104;11.396;2023-05-12T05:45:45;100078.19;;;8.84;100.00
48563;BME280;34981;49.104;11.396;2023-05-12T05:48:12;100085.75;;;8.88;100.00
48563;BME280;34981;49.104;11.396;2023-05-12T05:50:39;100088.28;;;8.90;100.00
48563;BME280;34981;49.104;11.396;2023-05-12T05:53:06;100091.81;;;8.90;100.00
48563;BME280;34981;49.104;11.396;2023-05-12T05:55:33;100088.94;;;8.92;100.00
48563;BME280;34981;49.104;11.396;2023-05-12T05:58:00;100089.13;;;8.90;100.00
48563;BME280;34981;49.104;11.396;2023-05-12T06:00:28;100087.28;;;8.91;100.00
48563;BME280;34981;49.104;11.396;2023-05-12T06:02:55;100086.44;;;8.90;100.00
48563;BME280;34981;49.104;11.396;2023-05-12T06:05:22;100096.00;;;8.93;100.00
48563;BME280;34981;49.104;11.396;2023-05-12T06:07:50;100089.13;;;8.90;100.00
48563;BME280;34981;49.104;11.396;2023-05-12T06:10:17;100089.97;;;8.91;100.00
48563;BME280;34981;49.104;11.396;2023-05-12T06:12:44;100098.69;;;8.93;100.00
48563;BME280;34981;49.104;11.396;2023-05-12T06:15:11;100097.38;;;8.97;100.00
48563;BME280;34981;49.104;11.396;2023-05-12T06:17:38;100097.38;;;8.97;100.00
48563;BME280;34981;49.104;11.396;2023-05-12T06:20:06;100102.06;;;8.95;100.00
48563;BME280;34981;49.104;11.396;2023-05-12T06:22:33;100091.47;;;8.93;100.00
48563;BME280;34981;49.104;11.396;2023-05-12T06:25:01;100104.72;;;8.95;100.00
48563;BME280;34981;49.104;11.396;2023-05-12T06:27:28;100107.13;;;8.98;100.00
48563;BME280;34981;49.104;11.396;2023-05-12T06:29:55;100112.00;;;9.03;100.00
48563;BME280;34981;49.104;11.396;2023-05-12T06:32:22;100114.53;;;9.04;100.00
48563;BME280;34981;49.104;11.396;2023-05-12T06:34:49;100117.22;;;9.04;100.00
48563;BME280;34981;49.104;11.396;2023-05-12T06:37:16;100112.84;;;9.03;100.00
48563;BME280;34981;49.104;11.396;2023-05-12T06:39:43;100119.75;;;9.06;100.00
48563;BME280;34981;49.104;11.396;2023-05-12T06:42:10;100119.75;;;9.06;100.00
48563;BME280;34981;49.104;11.396;2023-05-12T06:44:41;100115.88;;;9.08;100.00
48563;BME280;34981;49.104;11.396;2023-05-12T06:47:08;100113.75;;;9.12;100.00
48563;BME280;34981;49.104;11.396;2023-05-12T06:49:35;100115.56;;;9.11;100.00
48563;BME280;34981;49.104;11.396;2023-05-12T06:52:04;100115.56;;;9.11;100.00
48563;BME280;34981;49.104;11.396;2023-05-12T06:54:32;100118.94;;;9.13;100.00
48563;BME280;34981;49.104;11.396;2023-05-12T06:56:59;100125.97;;;9.14;100.00
48563;BME280;34981;49.104;11.396;2023-05-12T06:59:26;100121.00;;;9.19;100.00
48563;BME280;34981;49.104;11.396;2023-05-12T07:01:53;100117.63;;;9.17;100.00
48563;BME280;34981;49.104;11.396;2023-05-12T07:04:21;100120.16;;;9.19;100.00
48563;BME280;34981;49.104;11.396;2023-05-12T07:06:48;100124.72;;;9.26;100.00
48563;BME280;34981;49.104;11.396;2023-05-12T07:09:15;100122.41;;;9.31;100.00
48563;BME280;34981;49.104;11.396;2023-05-12T07:11:44;100126.78;;;9.32;100.00
48563;BME280;34981;49.104;11.396;2023-05-12T07:14:11;100128.47;;;9.33;100.00
48563;BME280;34981;49.104;11.396;2023-05-12T07:16:38;100126.63;;;9.34;100.00
48563;BME280;34981;49.104;11.396;2023-05-12T07:19:05;100112.81;;;9.29;100.00
48563;BME280;34981;49.104;11.396;2023-05-12T07:21:35;100112.31;;;9.25;100.00
48563;BME280;34981;49.104;11.396;2023-05-12T07:24:03;100118.72;;;9.32;100.00
48563;BME280;34981;49.104;11.396;2023-05-12T07:26:32;100129.66;;;9.39;100.00
48563;BME280;34981;49.104;11.396;2023-05-12T07:28:59;100131.56;;;9.47;100.00
48563;BME280;34981;49.104;11.396;2023-05-12T07:31:26;100133.91;;;9.50;100.00
48563;BME280;34981;49.104;11.396;2023-05-12T07:33:54;100136.59;;;9.50;100.00
48563;BME280;34981;49.104;11.396;2023-05-12T07:36:21;100131.56;;;9.47;100.00
48563;BME280;34981;49.104;11.396;2023-05-12T07:38:48;100136.28;;;9.53;100.00
48563;BME280;34981;49.104;11.396;2023-05-12T07:41:16;100139.84;;;9.61;100.00
48563;BME280;34981;49.104;11.396;2023-05-12T07:43:44;100143.53;;;9.60;100.00
48563;BME280;34981;49.104;11.396;2023-05-12T07:46:11;100146.38;;;9.59;100.00
48563;BME280;34981;49.104;11.396;2023-05-12T07:48:38;100155.47;;;9.66;100.00
48563;BME280;34981;49.104;11.396;2023-05-12T07:51:06;100163.88;;;9.63;100.00
48563;BME280;34981;49.104;11.396;2023-05-12T07:53:34;100173.97;;;9.69;100.00
48563;BME280;34981;49.104;11.396;2023-05-12T07:56:01;100205.53;;;9.67;100.00
48563;BME280;34981;49.104;11.396;2023-05-12T07:58:28;100212.63;;;9.76;100.00
48563;BME280;34981;49.104;11.396;2023-05-12T08:00:55;100213.28;;;9.70;100.00
48563;BME280;34981;49.104;11.396;2023-05-12T08:03:25;100208.56;;;9.72;100.00
48563;BME280;34981;49.104;11.396;2023-05-12T08:05:53;100226.06;;;9.76;100.00
48563;BME280;34981;49.104;11.396;2023-05-12T08:08:20;100222.72;;;9.82;100.00
48563;BME280;34981;49.104;11.396;2023-05-12T08:10:47;100236.22;;;9.90;100.00
48563;BME280;34981;49.104;11.396;2023-05-12T08:13:14;100220.72;;;9.84;100.00
48563;BME280;34981;49.104;11.396;2023-05-12T08:15:41;100216.84;;;9.79;100.00
48563;BME280;34981;49.104;11.396;2023-05-12T08:18:08;100232.47;;;9.83;100.00
48563;BME280;34981;49.104;11.396;2023-05-12T08:20:36;100233.22;;;9.93;100.00
48563;BME280;34981;49.104;11.396;2023-05-12T08:23:03;100235.91;;;9.93;100.00
48563;BME280;34981;49.104;11.396;2023-05-12T08:25:30;100238.09;;;9.98;100.00
48563;BME280;34981;49.104;11.396;2023-05-12T08:27:57;100252.09;;;10.09;100.00
48563;BME280;34981;49.104;11.396;2023-05-12T08:30:25;100244.66;;;10.03;100.00
48563;BME280;34981;49.104;11.396;2023-05-12T08:32:53;100234.03;;;9.94;100.00
48563;BME280;34981;49.104;11.396;2023-05-12T08:35:20;100238.75;;;9.92;100.00
48563;BME280;34981;49.104;11.396;2023-05-12T08:37:48;100232.84;;;9.88;100.00
48563;BME280;34981;49.104;11.396;2023-05-12T08:40:24;100246.47;;;9.95;100.00
48563;BME280;34981;49.104;11.396;2023-05-12T08:45:28;100242.81;;;10.04;100.00
48563;BME280;34981;49.104;11.396;2023-05-12T08:47:55;100265.50;;;10.01;100.00
48563;BME280;34981;49.104;11.396;2023-05-12T08:50:22;100254.03;;;9.91;100.00
48563;BME280;34981;49.104;11.396;2023-05-12T08:52:50;100258.22;;;9.94;100.00
48563;BME280;34981;49.104;11.396;2023-05-12T08:55:17;100267.50;;;9.99;100.00
48563;BME280;34981;49.104;11.396;2023-05-12T08:57:45;100277.47;;;10.07;100.00
48563;BME280;34981;49.104;11.396;2023-05-12T09:00:14;100264.19;;;10.05;100.00
48563;BME280;34981;49.104;11.396;2023-05-12T09:02:42;100263.34;;;10.05;100.00
48563;BME280;34981;49.104;11.396;2023-05-12T09:05:20;100251.84;;;9.95;100.00
48563;BME280;34981;49.104;11.396;2023-05-12T09:07:49;100262.44;;;9.96;100.00
48563;BME280;34981;49.104;11.396;2023-05-12T09:10:17;100274.59;;;10.00;100.00
48563;BME280;34981;49.104;11.396;2023-05-12T09:15:50;100244.31;;;9.98;100.00
48563;BME280;34981;49.104;11.396;2023-05-12T09:18:19;100260.25;;;9.92;100.00
48563;BME280;34981;49.104;11.396;2023-05-12T09:20:47;100275.25;;;10.02;100.00
48563;BME280;34981;49.104;11.396;2023-05-12T09:23:18;100278.63;;;10.04;100.00
48563;BME280;34981;49.104;11.396;2023-05-12T09:25:45;100275.59;;;9.99;100.00
48563;BME280;34981;49.104;11.396;2023-05-12T09:28:13;100281.13;;;9.98;100.00
48563;BME280;34981;49.104;11.396;2023-05-12T09:30:40;100274.69;;;9.91;100.00
48563;BME280;34981;49.104;11.396;2023-05-12T09:33:09;100277.69;;;9.88;100.00
48563;BME280;34981;49.104;11.396;2023-05-12T09:35:39;100277.03;;;9.86;100.00
48563;BME280;34981;49.104;11.396;2023-05-12T09:38:10;100285.09;;;9.94;100.00
48563;BME280;34981;49.104;11.396;2023-05-12T09:40:37;100283.31;;;10.02;100.00
48563;BME280;34981;49.104;11.396;2023-05-12T09:43:04;100290.38;;;10.03;100.00
48563;BME280;34981;49.104;11.396;2023-05-12T09:45:35;100303.56;;;10.14;100.00
48563;BME280;34981;49.104;11.396;2023-05-12T09:48:06;100300.41;;;10.19;100.00
48563;BME280;34981;49.104;11.396;2023-05-12T09:50:40;100302.50;;;10.07;100.00
48563;BME280;34981;49.104;11.396;2023-05-12T09:53:14;100290.25;;;10.13;100.00
48563;BME280;34981;49.104;11.396;2023-05-12T09:55:41;100304.41;;;10.15;100.00
48563;BME280;34981;49.104;11.396;2023-05-12T09:58:09;100310.84;;;10.22;100.00
48563;BME280;34981;49.104;11.396;2023-05-12T10:00:37;100310.59;;;10.15;100.00
48563;BME280;34981;49.104;11.396;2023-05-12T10:03:25;100286.47;;;10.24;100.00
48563;BME280;34981;49.104;11.396;2023-05-12T10:05:57;100312.75;;;10.30;100.00
48563;BME280;34981;49.104;11.396;2023-05-12T10:08:29;100301.25;;;10.20;100.00
48563;BME280;34981;49.104;11.396;2023-05-12T10:10:58;100327.88;;;10.39;100.00
48563;BME280;34981;49.104;11.396;2023-05-12T10:13:25;100321.47;;;10.32;100.00
48563;BME280;34981;49.104;11.396;2023-05-12T10:15:54;100321.47;;;10.32;100.00
48563;BME280;34981;49.104;11.396;2023-05-12T10:18:22;100323.03;;;10.42;100.00
48563;BME280;34981;49.104;11.396;2023-05-12T10:20:50;100330.91;;;10.36;100.00
48563;BME280;34981;49.104;11.396;2023-05-12T10:23:18;100313.78;;;10.37;100.00
48563;BME280;34981;49.104;11.396;2023-05-12T10:25:45;100334.84;;;10.49;100.00
48563;BME280;34981;49.104;11.396;2023-05-12T10:28:13;100333.31;;;10.47;100.00
48563;BME280;34981;49.104;11.396;2023-05-12T10:30:40;100334.72;;;10.59;100.00
48563;BME280;34981;49.104;11.396;2023-05-12T10:33:08;100337.75;;;10.64;100.00
48563;BME280;34981;49.104;11.396;2023-05-12T10:35:38;100342.66;;;10.77;100.00
48563;BME280;34981;49.104;11.396;2023-05-12T10:38:06;100348.06;;;10.85;100.00
48563;BME280;34981;49.104;11.396;2023-05-12T10:40:33;100343.38;;;10.87;100.00
48563;BME280;34981;49.104;11.396;2023-05-12T10:43:00;100333.91;;;10.75;100.00
48563;BME280;34981;49.104;11.396;2023-05-12T10:45:27;100361.56;;;10.93;100.00
48563;BME280;34981;49.104;11.396;2023-05-12T10:48:04;100342.53;;;10.86;100.00
48563;BME280;34981;49.104;11.396;2023-05-12T10:50:32;100347.44;;;10.99;100.00
48563;BME280;34981;49.104;11.396;2023-05-12T10:52:59;100352.47;;;10.94;100.00
48563;BME280;34981;49.104;11.396;2023-05-12T10:55:33;100341.00;;;10.84;100.00
48563;BME280;34981;49.104;11.396;2023-05-12T10:58:05;100337.81;;;10.88;100.00
48563;BME280;34981;49.104;11.396;2023-05-12T11:00:41;100336.44;;;10.76;100.00
48563;BME280;34981;49.104;11.396;2023-05-12T11:03:11;100323.31;;;10.73;100.00
48563;BME280;34981;49.104;11.396;2023-05-12T11:05:39;100340.31;;;10.82;100.00
48563;BME280;34981;49.104;11.396;2023-05-12T11:08:06;100337.81;;;10.80;100.00
48563;BME280;34981;49.104;11.396;2023-05-12T11:10:35;100340.66;;;10.79;100.00
48563;BME280;34981;49.104;11.396;2023-05-12T11:13:02;100332.75;;;10.77;100.00
48563;BME280;34981;49.104;11.396;2023-05-12T11:15:30;100342.34;;;10.80;100.00
48563;BME280;34981;49.104;11.396;2023-05-12T11:18:00;100334.75;;;10.75;100.00
48563;BME280;34981;49.104;11.396;2023-05-12T11:20:28;100336.97;;;10.80;100.00
48563;BME280;34981;49.104;11.396;2023-05-12T11:22:57;100348.22;;;10.83;100.00
48563;BME280;34981;49.104;11.396;2023-05-12T11:25:25;100341.16;;;10.82;100.00
48563;BME280;34981;49.104;11.396;2023-05-12T11:27:52;100353.31;;;10.86;100.00
48563;BME280;34981;49.104;11.396;2023-05-12T11:30:19;100351.47;;;10.87;100.00
48563;BME280;34981;49.104;11.396;2023-05-12T11:32:47;100345.19;;;10.78;100.00
48563;BME280;34981;49.104;11.396;2023-05-12T11:35:15;100352.63;;;10.84;100.00
48563;BME280;34981;49.104;11.396;2023-05-12T11:37:43;100348.59;;;10.80;100.00
48563;BME280;34981;49.104;11.396;2023-05-12T11:40:18;100347.91;;;10.78;100.00
48563;BME280;34981;49.104;11.396;2023-05-12T11:42:46;100333.91;;;10.75;100.00
48563;BME280;34981;49.104;11.396;2023-05-12T11:45:22;100343.50;;;10.77;100.00
48563;BME280;34981;49.104;11.396;2023-05-12T11:47:49;100344.03;;;10.81;100.00
48563;BME280;34981;49.104;11.396;2023-05-12T11:50:20;100355.13;;;10.78;100.00
48563;BME280;34981;49.104;11.396;2023-05-12T11:52:48;100349.22;;;10.74;100.00
48563;BME280;34981;49.104;11.396;2023-05-12T11:55:19;100359.66;;;10.77;100.00
48563;BME280;34981;49.104;11.396;2023-05-12T11:57:55;100350.91;;;10.75;100.00
48563;BME280;34981;49.104;11.396;2023-05-12T12:00:29;100351.75;;;10.76;100.00
48563;BME280;34981;49.104;11.396;2023-05-12T12:03:07;100353.78;;;10.74;100.00
48563;BME280;34981;49.104;11.396;2023-05-12T12:05:36;100346.81;;;10.63;100.00
48563;BME280;34981;49.104;11.396;2023-05-12T12:08:04;100364.81;;;10.63;100.00
48563;BME280;34981;49.104;11.396;2023-05-12T12:10:35;100355.22;;;10.60;100.00
48563;BME280;34981;49.104;11.396;2023-05-12T12:13:02;100365.31;;;10.58;100.00
48563;BME280;34981;49.104;11.396;2023-05-12T12:15:29;100367.47;;;10.54;100.00
48563;BME280;34981;49.104;11.396;2023-05-12T12:17:56;100361.41;;;10.52;100.00
48563;BME280;34981;49.104;11.396;2023-05-12T12:20:23;100378.09;;;10.56;100.00
48563;BME280;34981;49.104;11.396;2023-05-12T12:22:51;100372.00;;;10.54;100.00
48563;BME280;34981;49.104;11.396;2023-05-12T12:25:19;100379.38;;;10.52;100.00
48563;BME280;34981;49.104;11.396;2023-05-12T12:27:47;100379.63;;;10.59;100.00
48563;BME280;34981;49.104;11.396;2023-05-12T12:30:14;100379.38;;;10.52;100.00
48563;BME280;34981;49.104;11.396;2023-05-12T12:32:43;100379.25;;;10.53;100.00
48563;BME280;34981;49.104;11.396;2023-05-12T12:35:10;100378.38;;;10.53;100.00
48563;BME280;34981;49.104;11.396;2023-05-12T12:37:39;100386.13;;;10.48;100.00
48563;BME280;34981;49.104;11.396;2023-05-12T12:40:06;100379.19;;;10.37;100.00
48563;BME280;34981;49.104;11.396;2023-05-12T12:42:34;100371.53;;;10.25;100.00
48563;BME280;34981;49.104;11.396;2023-05-12T12:45:05;100373.72;;;10.21;100.00
48563;BME280;34981;49.104;11.396;2023-05-12T12:47:34;100364.09;;;10.19;100.00
48563;BME280;34981;49.104;11.396;2023-05-12T12:50:01;100376.81;;;10.16;100.00
48563;BME280;34981;49.104;11.396;2023-05-12T12:52:29;100380.59;;;10.24;100.00